Time;durP1;ratioP1;P1;durP2;ratioP2;P2;SDS_P1;SDS_P2;PMS_P1;PMS_P2;Temp;Humidity;BMP_temperature;BMP_pressure;BME280_temperature;BME280_humidity;BME280_pressure;Samples;Min_cycle;Max_cycle;Signal;HPM_P1;HPM_P2
2022/01/23 00:00:36;;;;;;;11.77;2.97;;;;;;;7.56;77.02;101197.38;5065556;28;19970;-74
2022/01/23 00:03:08;;;;;;;18.38;5.78;;;;;;;7.52;76.72;101188.53;5047354;28;20041;-75
2022/01/23 00:05:40;;;;;;;18.25;8.10;;;;;;;7.50;75.58;101199.81;5064365;28;20044;-74
2022/01/23 00:08:10;;;;;;;20.25;8.60;;;;;;;7.50;75.16;101197.19;5046688;28;20514;-73
2022/01/23 00:10:38;;;;;;;10.13;3.17;;;;;;;7.50;74.98;101211.22;5046063;28;20104;-74
2022/01/23 00:13:12;;;;;;;10.60;3.30;;;;;;;7.48;75.31;101227.78;5046601;28;20451;-74
2022/01/23 00:18:28;;;;;;;10.95;3.17;;;;;;;7.37;75.56;101213.34;5042724;28;20117;-74
2022/01/23 00:20:56;;;;;;;15.23;2.40;;;;;;;7.30;75.19;101214.84;5024750;28;20091;-74
2022/01/23 00:23:35;;;;;;;9.70;2.53;;;;;;;7.24;74.95;101217.28;5034629;28;20052;-75
2022/01/23 00:31:36;;;;;;;8.38;4.20;;;;;;;7.06;73.04;101213.97;5035618;28;20103;-75
2022/01/23 00:34:03;;;;;;;5.88;2.08;;;;;;;6.99;72.10;101220.72;5033326;28;20050;-74
2022/01/23 00:36:31;;;;;;;6.00;1.38;;;;;;;6.96;71.91;101198.72;5048094;28;20073;-75
2022/01/23 00:38:59;;;;;;;7.97;2.90;;;;;;;6.93;71.09;101178.53;5048873;28;20056;-75
2022/01/23 00:41:27;;;;;;;3.92;1.30;;;;;;;6.95;70.13;101154.97;5048613;28;20130;-75
2022/01/23 00:43:54;;;;;;;4.78;1.40;;;;;;;6.92;69.34;101158.34;5040045;28;20100;-75
2022/01/23 00:46:30;;;;;;;7.65;2.60;;;;;;;6.92;69.56;101167.97;5049913;28;20041;-75
2022/01/23 00:49:24;;;;;;;12.38;2.58;;;;;;;6.94;69.66;101182.03;5046927;28;20080;-75
2022/01/23 00:51:53;;;;;;;8.17;1.57;;;;;;;6.97;68.91;101175.16;5014543;28;20041;-75
2022/01/23 00:54:21;;;;;;;7.50;1.55;;;;;;;6.99;68.69;101190.97;5029448;28;20038;-75
2022/01/23 00:56:49;;;;;;;6.88;1.52;;;;;;;6.97;67.68;101183.03;5048852;28;20051;-75
2022/01/23 00:59:16;;;;;;;10.63;1.73;;;;;;;6.95;67.22;101189.09;5049197;28;20116;-75
2022/01/23 01:01:44;;;;;;;7.35;1.58;;;;;;;6.97;67.71;101171.63;5035228;28;20049;-75
2022/01/23 01:04:13;;;;;;;5.72;1.40;;;;;;;6.98;67.71;101161.19;5033403;28;20041;-75
2022/01/23 01:06:41;;;;;;;6.75;1.45;;;;;;;7.00;67.51;101177.91;5031393;28;20063;-76
2022/01/23 01:09:09;;;;;;;9.55;1.95;;;;;;;7.04;67.42;101176.28;5043467;28;20099;-76
2022/01/23 01:17:20;;;;;;;8.45;2.03;;;;;;;7.06;67.85;101195.59;5023493;28;20462;-76
2022/01/23 01:31:00;;;;;;;5.88;1.77;;;;;;;6.99;67.77;101207.63;5037972;28;20073;-75
2022/01/23 01:33:40;;;;;;;6.32;2.08;;;;;;;6.95;67.09;101182.09;5048429;28;20116;-76
2022/01/23 01:36:21;;;;;;;4.82;1.17;;;;;;;6.92;66.47;101200.34;5039644;28;20036;-76
2022/01/23 01:38:50;;;;;;;5.97;1.40;;;;;;;6.90;66.97;101199.38;5051992;28;20048;-76
2022/01/23 01:41:20;;;;;;;4.97;1.67;;;;;;;6.88;66.17;101187.97;5034144;28;20076;-76
2022/01/23 01:43:49;;;;;;;7.25;1.13;;;;;;;6.87;66.76;101178.31;5046234;28;20041;-76
2022/01/23 01:46:17;;;;;;;5.75;1.23;;;;;;;6.86;66.72;101181.75;5048760;28;20032;-76
2022/01/23 01:48:54;;;;;;;3.65;1.30;;;;;;;6.84;66.59;101193.00;5032866;28;20041;-76
2022/01/23 01:51:29;;;;;;;8.55;1.00;;;;;;;6.84;67.07;101183.41;5026861;28;20048;-76
2022/01/23 01:54:13;;;;;;;6.55;1.38;;;;;;;6.82;66.87;101173.72;5032467;28;20037;-76
2022/01/23 01:56:52;;;;;;;6.70;1.20;;;;;;;6.80;66.62;101157.91;5001009;28;20087;-76
2022/01/23 01:59:48;;;;;;;4.90;1.10;;;;;;;6.76;66.69;101154.28;4994424;28;20034;-76
2022/01/23 02:02:56;;;;;;;7.50;1.30;;;;;;;6.77;67.25;101160.41;5018589;28;20079;-77
2022/01/23 02:11:05;;;;;;;5.20;1.30;;;;;;;6.84;67.62;101179.91;5049692;28;20037;-76
2022/01/23 02:13:36;;;;;;;5.13;1.65;;;;;;;6.86;68.18;101189.63;5045920;28;20463;-76
2022/01/23 02:16:41;;;;;;;7.47;2.30;;;;;;;6.90;68.41;101194.13;5074186;28;20041;-76
2022/01/23 02:25:17;;;;;;;5.43;1.40;;;;;;;6.84;66.50;101200.88;5049514;28;20056;-76
2022/01/23 02:52:54;;;;;;;2.55;1.40;;;;;;;6.84;63.91;101198.25;5040587;28;20041;-73
2022/01/23 02:55:27;;;;;;;5.80;1.80;;;;;;;6.83;63.11;101188.63;5023815;28;20052;-73
2022/01/23 02:58:04;;;;;;;3.83;2.60;;;;;;;6.78;62.83;101189.34;5034113;28;20123;-73
2022/01/23 03:00:36;;;;;;;6.15;1.50;;;;;;;6.74;62.63;101190.06;5039729;28;20069;-74
2022/01/23 03:03:10;;;;;;;4.95;3.47;;;;;;;6.75;63.20;101197.09;5038898;28;20116;-74
2022/01/23 03:06:19;;;;;;;3.90;1.85;;;;;;;6.73;63.67;101182.13;5044936;28;20068;-74
2022/01/23 03:09:11;;;;;;;3.83;1.40;;;;;;;6.73;63.22;101187.38;5028588;28;20115;-73
2022/01/23 03:12:05;;;;;;;5.03;1.30;;;;;;;6.76;62.52;101198.00;5007843;28;20459;-73
2022/01/23 03:14:46;;;;;;;8.67;1.97;;;;;;;6.78;62.95;101199.81;5017972;28;20128;-74
2022/01/23 03:26:01;;;;;;;10.40;3.28;;;;;;;6.87;63.35;101206.25;5047972;28;20128;-73
2022/01/23 03:28:38;;;;;;;15.18;6.22;;;;;;;6.90;63.66;101222.09;5047104;28;20126;-73
2022/01/23 03:31:21;;;;;;;25.85;11.85;;;;;;;6.91;63.50;101219.53;5048072;28;20052;-74
2022/01/23 03:33:49;;;;;;;14.00;5.15;;;;;;;6.89;63.11;101226.50;5049495;28;20092;-73
2022/01/23 03:36:17;;;;;;;8.27;3.35;;;;;;;6.87;63.17;101230.78;5018947;28;20073;-73
2022/01/23 03:38:46;;;;;;;6.70;2.65;;;;;;;6.84;63.11;101233.28;5044114;28;20042;-73
2022/01/23 03:41:14;;;;;;;7.68;3.92;;;;;;;6.86;63.33;101235.97;5017272;28;20508;-73
2022/01/23 03:43:43;;;;;;;9.85;2.67;;;;;;;6.87;62.76;101243.91;5037240;28;20395;-73
2022/01/23 03:46:47;;;;;;;5.47;2.10;;;;;;;6.87;63.19;101241.28;5050653;28;20048;-73
2022/01/23 03:49:34;;;;;;;4.97;1.90;;;;;;;7.02;62.40;101241.81;5039156;28;20041;-74
2022/01/23 03:52:12;;;;;;;7.60;3.70;;;;;;;7.04;62.41;101237.53;5049626;28;20105;-73
2022/01/23 03:54:43;;;;;;;8.70;3.10;;;;;;;7.07;62.49;101237.66;5086318;28;20056;-74
2022/01/23 03:57:11;;;;;;;5.35;1.98;;;;;;;7.09;62.54;101248.19;5036812;28;20041;-72
2022/01/23 03:59:41;;;;;;;6.18;1.58;;;;;;;7.11;62.47;101238.66;5042848;28;20053;-73
2022/01/23 04:02:10;;;;;;;4.28;1.85;;;;;;;7.10;62.83;101257.88;5032674;28;20049;-72
2022/01/23 04:04:40;;;;;;;7.43;1.58;;;;;;;7.12;62.40;101251.84;5036617;28;20106;-73
2022/01/23 04:07:15;;;;;;;6.35;1.98;;;;;;;7.18;63.25;101256.44;5049093;28;20044;-71
2022/01/23 04:09:44;;;;;;;10.35;7.28;;;;;;;7.24;63.14;101255.75;5034999;28;20045;-73
2022/01/23 04:12:25;;;;;;;9.63;6.03;;;;;;;7.27;63.02;101258.50;5035182;28;20404;-73
2022/01/23 04:15:06;;;;;;;8.02;3.42;;;;;;;7.31;63.40;101258.66;5067109;28;20488;-73
2022/01/23 04:20:38;;;;;;;6.65;1.90;;;;;;;7.35;63.51;101254.44;4970393;28;20041;-73
2022/01/23 04:31:50;;;;;;;5.95;1.63;;;;;;;7.38;63.25;101249.28;5010397;28;20555;-73
2022/01/23 04:34:28;;;;;;;4.68;1.70;;;;;;;7.45;63.75;101249.56;5032517;28;20065;-73
2022/01/23 04:45:36;;;;;;;3.65;1.10;;;;;;;7.47;63.65;101268.00;5038464;28;20040;-72
2022/01/23 05:02:02;;;;;;;10.38;2.03;;;;;;;7.57;64.37;101263.13;5028184;28;20052;-73
2022/01/23 05:04:51;;;;;;;6.15;1.33;;;;;;;7.61;63.72;101265.00;5024924;28;20041;-74
2022/01/23 05:07:26;;;;;;;5.07;2.10;;;;;;;7.56;62.93;101271.84;5030562;28;20765;-73
2022/01/23 05:10:12;;;;;;;3.22;1.27;;;;;;;7.57;64.16;101271.00;5034332;28;20610;-72
2022/01/23 05:13:03;;;;;;;7.25;3.17;;;;;;;7.50;64.66;101266.38;5030841;28;20500;-73
2022/01/23 05:15:30;;;;;;;7.57;2.95;;;;;;;7.54;65.45;101270.91;5046616;28;20076;-73
2022/01/23 05:17:58;;;;;;;5.30;1.77;;;;;;;7.62;65.89;101284.28;5046362;28;20041;-73
2022/01/23 05:20:29;;;;;;;2.55;1.25;;;;;;;7.64;66.07;101280.00;5037543;28;20048;-73
2022/01/23 05:23:01;;;;;;;6.20;2.13;;;;;;;7.59;66.26;101274.59;5028894;28;20061;-73
2022/01/23 05:25:31;;;;;;;3.40;1.23;;;;;;;7.56;66.47;101287.59;5027527;28;20045;-73
2022/01/23 05:27:59;;;;;;;5.38;1.42;;;;;;;7.50;67.08;101291.75;5049934;28;20102;-73
2022/01/23 05:30:27;;;;;;;4.80;1.35;;;;;;;7.49;67.24;101288.22;5042902;28;20044;-73
2022/01/23 05:32:57;;;;;;;11.38;4.55;;;;;;;7.47;67.34;101295.16;5039236;28;20098;-73
2022/01/23 05:35:27;;;;;;;10.50;3.40;;;;;;;7.47;67.02;101295.16;5048611;28;20044;-73
2022/01/23 05:37:57;;;;;;;5.82;1.60;;;;;;;7.49;66.95;101285.59;5048830;28;20041;-73
2022/01/23 05:40:28;;;;;;;4.93;1.73;;;;;;;7.51;66.56;101291.81;5037629;28;20112;-73
2022/01/23 05:42:57;;;;;;;8.98;3.50;;;;;;;7.48;65.69;101290.81;5046698;28;20041;-73
2022/01/23 05:45:25;;;;;;;4.68;1.48;;;;;;;7.50;65.95;101283.88;5047541;28;20049;-73
2022/01/23 05:48:08;;;;;;;10.45;6.05;;;;;;;7.56;65.80;101282.34;5067274;28;20047;-73
2022/01/23 05:50:49;;;;;;;9.80;3.80;;;;;;;7.61;65.66;101275.50;5056142;28;20118;-73
2022/01/23 05:53:31;;;;;;;12.63;5.55;;;;;;;7.61;66.10;101279.91;5052097;28;20041;-73
2022/01/23 05:56:18;;;;;;;11.73;4.25;;;;;;;7.66;66.06;101296.72;5012015;28;20073;-73
2022/01/23 05:58:59;;;;;;;10.65;3.67;;;;;;;7.71;66.01;101292.53;5030142;28;20191;-73
2022/01/23 06:01:34;;;;;;;8.00;3.63;;;;;;;7.73;65.94;101284.69;5031842;28;20043;-73
2022/01/23 06:04:09;;;;;;;11.82;3.33;;;;;;;7.75;66.26;101301.38;5041266;28;20049;-73
2022/01/23 06:06:45;;;;;;;11.48;4.65;;;;;;;7.74;65.40;101284.75;5038038;28;20048;-73
2022/01/23 06:09:15;;;;;;;7.07;3.20;;;;;;;7.74;64.04;101286.50;5045895;28;20090;-73
2022/01/23 06:11:42;;;;;;;6.45;3.13;;;;;;;7.74;63.54;101281.22;5024095;28;20038;-73
2022/01/23 06:14:10;;;;;;;8.02;3.25;;;;;;;7.77;63.17;101282.22;5018318;28;20090;-73
2022/01/23 06:16:39;;;;;;;6.20;2.30;;;;;;;7.79;62.37;101277.94;5022937;28;20045;-73
2022/01/23 06:19:27;;;;;;;3.47;1.65;;;;;;;7.77;61.31;101282.22;5005105;28;20124;-73
2022/01/23 06:22:15;;;;;;;2.00;0.65;;;;;;;7.74;59.88;101287.38;5028838;28;20048;-71
2022/01/23 06:25:05;;;;;;;2.60;0.70;;;;;;;7.72;59.09;101291.69;5047446;28;20175;-71
2022/01/23 06:27:53;;;;;;;2.97;0.77;;;;;;;7.69;59.25;101281.03;5044766;28;20041;-71
2022/01/23 06:30:21;;;;;;;4.47;2.30;;;;;;;7.74;59.49;101283.88;5039318;28;20038;-72
2022/01/23 06:32:48;;;;;;;4.68;1.80;;;;;;;7.78;59.24;101285.75;5029415;28;20049;-73
2022/01/23 06:35:16;;;;;;;1.65;1.10;;;;;;;7.80;58.87;101279.72;5028395;28;20416;-73
2022/01/23 06:37:44;;;;;;;4.53;1.90;;;;;;;7.82;58.77;101292.88;5037725;28;20045;-73
2022/01/23 06:40:15;;;;;;;3.53;1.10;;;;;;;7.87;58.84;101291.34;5043871;28;20084;-73
2022/01/23 06:43:11;;;;;;;6.22;3.30;;;;;;;7.88;59.68;101296.63;5003669;28;20064;-73
2022/01/23 06:45:57;;;;;;;2.75;1.23;;;;;;;7.90;60.18;101301.94;5032664;28;20041;-74
2022/01/23 06:48:24;;;;;;;6.30;2.65;;;;;;;7.89;59.64;101308.94;5033976;28;20045;-73
2022/01/23 06:50:53;;;;;;;9.90;4.00;;;;;;;7.91;59.68;101324.75;5021877;28;20057;-73
2022/01/23 06:53:22;;;;;;;3.30;1.10;;;;;;;7.77;60.69;101331.25;5073716;28;20040;-74
2022/01/23 06:55:51;;;;;;;4.28;1.30;;;;;;;7.66;61.62;101343.13;5041545;28;20072;-73
2022/01/23 06:58:19;;;;;;;2.60;1.85;;;;;;;7.59;63.17;101331.50;5027882;28;20034;-72
2022/01/23 07:00:47;;;;;;;6.68;2.20;;;;;;;7.48;63.96;101356.47;5045327;28;20060;-72
2022/01/23 07:03:28;;;;;;;5.43;3.00;;;;;;;7.52;64.85;101367.16;5027367;28;20071;-73
2022/01/23 07:06:10;;;;;;;9.40;6.55;;;;;;;7.41;65.07;101388.59;5062078;28;20523;-74
2022/01/23 07:08:48;;;;;;;6.97;2.60;;;;;;;6.70;66.00;101381.38;5042787;28;20731;-74
2022/01/23 07:11:35;;;;;;;10.43;6.03;;;;;;;5.61;67.72;101354.81;5032193;28;20433;-75
2022/01/23 07:14:12;;;;;;;8.10;2.90;;;;;;;5.24;69.81;101359.22;5029141;28;20063;-73
2022/01/23 07:16:58;;;;;;;9.93;7.43;;;;;;;5.24;71.87;101374.94;5046750;28;20060;-72
2022/01/23 07:19:37;;;;;;;12.43;6.70;;;;;;;5.33;72.26;101383.19;5038146;28;20041;-72
2022/01/23 08:20:59;;;;;;;23.20;20.42;;;;;;;6.28;81.38;101490.59;3946487;28;20121;-73
2022/01/23 08:23:28;;;;;;;14.70;10.48;;;;;;;6.39;81.57;101469.25;5018829;28;20112;-74
2022/01/23 08:25:56;;;;;;;12.77;8.30;;;;;;;6.52;81.83;101465.44;5041624;28;20059;-74
2022/01/23 08:28:24;;;;;;;31.08;21.98;;;;;;;6.68;81.78;101474.88;5033159;28;20700;-73
2022/01/23 08:30:51;;;;;;;31.95;22.52;;;;;;;6.73;81.88;101479.47;5050480;28;20099;-74
2022/01/23 08:33:20;;;;;;;18.98;10.45;;;;;;;6.67;81.77;101509.81;5043637;28;20087;-74
2022/01/23 08:35:48;;;;;;;12.48;6.45;;;;;;;6.47;81.67;101511.56;5050618;28;20087;-75
2022/01/23 08:38:17;;;;;;;8.95;5.53;;;;;;;6.29;81.65;101508.13;5050224;28;20044;-74
2022/01/23 08:41:49;;;;;;;8.27;3.17;;;;;;;6.24;81.73;101505.28;5021299;28;20037;-73
2022/01/23 08:43:37;;;;;;;12.70;8.38;;;;;;;6.31;81.93;101514.31;5042976;28;20835;-73
2022/01/23 08:46:05;;;;;;;11.70;7.35;;;;;;;6.27;81.72;101509.78;5049806;28;20529;-73
2022/01/23 08:48:33;;;;;;;12.32;7.75;;;;;;;6.22;81.64;101513.91;5030908;28;20126;-73
2022/01/23 08:51:01;;;;;;;16.55;12.40;;;;;;;6.23;81.38;101515.72;5011111;28;20062;-76
2022/01/23 08:53:31;;;;;;;30.88;26.13;;;;;;;6.16;81.44;101519.78;5027867;28;20037;-73
2022/01/23 08:55:58;;;;;;;37.50;32.95;;;;;;;6.10;81.59;101522.13;5031182;28;20120;-74
2022/01/23 08:58:27;;;;;;;38.10;33.95;;;;;;;6.11;81.55;101515.13;5014382;28;20123;-74
2022/01/23 09:00:55;;;;;;;16.35;11.88;;;;;;;6.13;81.76;101506.53;5050082;28;20037;-75
2022/01/23 09:03:22;;;;;;;18.83;13.88;;;;;;;6.19;81.58;101517.28;5049942;28;20123;-74
2022/01/23 09:05:50;;;;;;;20.20;15.70;;;;;;;6.25;81.47;101529.78;5047092;28;20041;-73
2022/01/23 09:08:19;;;;;;;10.70;6.22;;;;;;;6.25;81.45;101528.03;5045419;28;20179;-74
2022/01/23 09:10:58;;;;;;;17.63;14.10;;;;;;;6.29;81.65;101548.34;5048931;28;20450;-74
2022/01/23 09:13:51;;;;;;;14.85;9.70;;;;;;;6.16;81.55;101540.75;5049524;28;20099;-74
2022/01/23 09:16:19;;;;;;;12.68;7.78;;;;;;;6.22;81.67;101545.38;5038438;28;20041;-74
2022/01/23 09:18:47;;;;;;;9.85;6.70;;;;;;;6.25;81.62;101545.50;5034301;28;20128;-74
2022/01/23 09:21:15;;;;;;;24.20;17.92;;;;;;;6.26;81.34;101553.44;5041792;28;20049;-74
2022/01/23 09:23:42;;;;;;;16.83;13.57;;;;;;;6.27;81.29;101555.25;5022712;28;20414;-74
2022/01/23 09:26:15;;;;;;;11.85;4.32;;;;;;;6.27;81.34;101552.63;5037341;28;20045;-74
2022/01/23 09:28:45;;;;;;;15.52;9.00;;;;;;;6.25;81.34;101549.03;5029798;28;20082;-75
2022/01/23 09:31:23;;;;;;;22.65;17.42;;;;;;;6.30;81.36;101550.13;5065757;28;20056;-74
2022/01/23 09:33:51;;;;;;;24.50;21.88;;;;;;;6.36;81.35;101539.94;5043557;28;20045;-74
2022/01/23 09:36:18;;;;;;;24.73;22.17;;;;;;;6.39;81.40;101545.31;5049602;28;20069;-74
2022/01/23 09:38:46;;;;;;;17.85;14.70;;;;;;;6.43;81.46;101540.22;5031946;28;20037;-75
2022/01/23 09:41:18;;;;;;;33.05;29.42;;;;;;;6.51;81.39;101549.28;5035774;28;20041;-74
2022/01/23 09:43:47;;;;;;;38.90;34.63;;;;;;;6.47;81.32;101542.13;5030146;28;20081;-74
2022/01/23 09:46:15;;;;;;;18.65;16.55;;;;;;;6.45;81.27;101535.91;5029635;28;20048;-74
2022/01/23 09:48:46;;;;;;;11.43;6.82;;;;;;;6.37;81.45;101540.81;5048731;28;20116;-75
2022/01/23 09:51:15;;;;;;;12.88;7.97;;;;;;;6.32;81.35;101537.97;5042480;28;20546;-74
2022/01/23 09:53:43;;;;;;;15.15;11.65;;;;;;;6.34;81.46;101540.69;5049859;28;20764;-73
2022/01/23 09:56:14;;;;;;;12.63;8.98;;;;;;;6.06;79.64;101542.88;5041260;28;20045;-75
2022/01/23 09:58:43;;;;;;;14.15;9.32;;;;;;;5.20;77.43;101541.34;5013435;28;20042;-75
2022/01/23 10:01:11;;;;;;;16.38;12.82;;;;;;;5.00;78.78;101543.78;5012276;28;20477;-74
2022/01/23 10:03:39;;;;;;;32.03;28.55;;;;;;;5.18;80.45;101545.63;5016049;28;20033;-75
2022/01/23 10:06:08;;;;;;;29.65;26.70;;;;;;;5.31;81.75;101557.59;5017964;28;20405;-74
2022/01/23 10:08:37;;;;;;;47.28;42.25;;;;;;;5.44;82.58;101559.09;5024466;28;20118;-75
2022/01/23 10:11:09;;;;;;;41.60;37.45;;;;;;;5.54;82.88;101583.19;5041677;28;20353;-75
2022/01/23 10:13:38;;;;;;;19.33;17.33;;;;;;;5.51;82.44;101601.34;5053216;28;20543;-76
2022/01/23 10:16:08;;;;;;;22.95;18.48;;;;;;;5.33;81.81;101613.53;5026755;28;20076;-75
2022/01/23 10:18:35;;;;;;;32.88;29.40;;;;;;;5.18;81.91;101597.97;5010336;28;20822;-75
2022/01/23 10:21:04;;;;;;;22.92;20.20;;;;;;;5.01;82.28;101605.75;5013185;28;20061;-75
2022/01/23 10:23:32;;;;;;;14.93;13.45;;;;;;;4.76;82.43;101604.50;5027114;28;20187;-74
2022/01/23 10:26:01;;;;;;;5.65;2.88;;;;;;;4.56;82.77;101602.56;5010920;28;20122;-74
2022/01/23 10:28:30;;;;;;;9.35;7.30;;;;;;;4.57;83.17;101604.38;5047834;28;20049;-74
2022/01/23 10:31:01;;;;;;;11.60;8.88;;;;;;;4.63;83.49;101599.44;5028147;28;20077;-74
2022/01/23 10:33:33;;;;;;;16.85;15.15;;;;;;;4.73;83.80;101601.72;5025313;28;20132;-74
2022/01/23 10:36:05;;;;;;;12.70;10.02;;;;;;;4.82;83.82;101589.13;5028826;28;20120;-74
2022/01/23 10:38:34;;;;;;;14.23;12.77;;;;;;;4.95;83.71;101576.69;5026115;28;20558;-74
2022/01/23 10:41:25;;;;;;;26.75;23.95;;;;;;;5.06;83.55;101592.09;5019170;28;20747;-73
2022/01/23 10:50:05;;;;;;;19.25;15.30;;;;;;;5.41;83.99;101565.06;5017677;28;20500;-73
2022/01/23 10:52:35;;;;;;;11.40;9.00;;;;;;;5.59;83.97;101551.97;5040656;28;20178;-74
2022/01/23 10:55:06;;;;;;;10.75;7.18;;;;;;;5.76;83.98;101552.78;5029998;28;20055;-74
2022/01/23 10:57:38;;;;;;;18.45;16.35;;;;;;;5.90;83.82;101554.38;5015006;28;20045;-72
2022/01/23 11:00:09;;;;;;;14.63;13.13;;;;;;;5.95;84.01;101540.66;5043873;28;20378;-74
2022/01/23 11:02:40;;;;;;;14.07;12.63;;;;;;;6.17;83.91;101547.75;5012534;28;20143;-74
2022/01/23 11:05:11;;;;;;;4.10;3.38;;;;;;;6.18;84.09;101539.09;5008989;28;20053;-74
2022/01/23 11:07:42;;;;;;;4.55;2.33;;;;;;;6.23;83.94;101537.59;5032420;28;20045;-74
2022/01/23 11:10:12;;;;;;;6.88;3.42;;;;;;;6.34;83.93;101538.97;5043414;28;20044;-75
2022/01/23 11:18:12;;;;;;;3.30;1.52;;;;;;;6.19;83.22;101513.78;5059733;28;20045;-75
2022/01/23 11:20:43;;;;;;;3.45;1.60;;;;;;;6.10;83.11;101514.28;5025565;28;20452;-74
2022/01/23 11:23:15;;;;;;;3.90;1.70;;;;;;;6.06;83.13;101512.31;5041437;28;20037;-74
2022/01/23 11:25:46;;;;;;;5.22;2.72;;;;;;;5.99;83.09;101511.13;5028690;28;20061;-74
2022/01/23 11:28:14;;;;;;;2.58;1.17;;;;;;;5.89;83.19;101514.19;5039379;28;20515;-73
2022/01/23 11:30:46;;;;;;;3.80;1.60;;;;;;;5.75;83.23;101524.81;5029825;28;20037;-73
2022/01/23 11:33:17;;;;;;;7.88;2.92;;;;;;;5.67;83.34;101545.38;5031270;28;20064;-73
2022/01/23 11:35:47;;;;;;;5.25;2.88;;;;;;;5.56;83.11;101550.13;5046915;28;20114;-75
2022/01/23 11:38:18;;;;;;;4.53;2.47;;;;;;;5.35;82.84;101550.78;5046954;28;20049;-73
2022/01/23 11:55:05;;;;;;;53.13;39.60;;;;;;;3.59;79.59;101558.94;5021664;28;20049;-76
2022/01/23 11:57:44;;;;;;;53.55;39.03;;;;;;;3.68;80.00;101571.56;5025518;28;20535;-75
2022/01/23 12:00:25;;;;;;;45.67;35.08;;;;;;;3.79;80.41;101575.72;5040056;28;20115;-74
2022/01/23 12:03:09;;;;;;;52.63;42.25;;;;;;;3.78;80.41;101558.25;5048625;28;20115;-74
2022/01/23 12:05:39;;;;;;;32.20;28.30;;;;;;;3.79;80.16;101554.81;5048702;28;20045;-73
2022/01/23 12:08:21;;;;;;;26.17;23.42;;;;;;;3.99;80.29;101556.81;5034610;28;20396;-74
2022/01/23 12:11:25;;;;;;;15.98;12.40;;;;;;;4.20;80.78;101548.34;5051143;28;20507;-73
2022/01/23 12:17:07;;;;;;;31.42;21.90;;;;;;;4.95;81.43;101547.91;5030754;28;20053;-74
2022/01/23 12:19:41;;;;;;;28.13;20.73;;;;;;;5.29;82.04;101540.03;5029798;28;20120;-74
2022/01/23 12:22:45;;;;;;;31.20;25.92;;;;;;;5.68;82.66;101539.31;5027457;28;20061;-74
2022/01/23 12:25:21;;;;;;;28.93;22.37;;;;;;;5.92;83.40;101529.13;5043329;28;20121;-73
2022/01/23 12:28:09;;;;;;;20.00;16.83;;;;;;;6.12;83.92;101533.56;5028635;28;20497;-73
2022/01/23 12:30:38;;;;;;;18.17;13.80;;;;;;;6.33;84.51;101523.16;5031633;28;20041;-73
2022/01/23 12:33:31;;;;;;;18.98;12.68;;;;;;;6.63;84.95;101521.88;5050363;28;20072;-73
2022/01/23 12:36:07;;;;;;;24.60;16.95;;;;;;;6.91;85.37;101521.34;5013052;28;20064;-73
2022/01/23 12:38:40;;;;;;;7.53;4.45;;;;;;;6.97;85.48;101510.19;5037532;28;20450;-73
2022/01/23 12:41:29;;;;;;;21.35;15.77;;;;;;;6.85;85.50;101521.06;5012324;28;20052;-73
2022/01/23 12:43:59;;;;;;;12.07;9.00;;;;;;;6.60;85.53;101515.63;5053056;28;20041;-73
2022/01/23 12:46:32;;;;;;;11.18;7.10;;;;;;;6.43;85.40;101525.38;5027568;28;20042;-73
2022/01/23 12:49:18;;;;;;;11.52;8.43;;;;;;;6.25;85.19;101528.03;5024996;28;20040;-73
2022/01/23 12:51:47;;;;;;;16.42;13.68;;;;;;;6.00;84.85;101530.38;5052585;28;20062;-73
2022/01/23 12:54:32;;;;;;;13.93;11.70;;;;;;;5.79;84.47;101531.97;5043400;28;20099;-73
2022/01/23 12:57:12;;;;;;;8.15;6.00;;;;;;;5.67;84.65;101537.53;5021072;28;20049;-73
2022/01/23 12:59:43;;;;;;;6.65;4.85;;;;;;;5.54;84.54;101543.91;5047584;28;20059;-73
2022/01/23 13:02:16;;;;;;;11.38;7.75;;;;;;;5.47;84.51;101554.00;5051981;28;20112;-73
2022/01/23 13:04:47;;;;;;;25.50;22.92;;;;;;;5.41;84.64;101564.16;5047576;28;20048;-73
2022/01/23 13:07:31;;;;;;;7.35;5.18;;;;;;;5.35;84.61;101563.88;5028185;28;20065;-72
2022/01/23 13:10:10;;;;;;;14.23;8.98;;;;;;;5.32;84.45;101569.84;5030394;28;20044;-72
2022/01/23 13:13:07;;;;;;;8.48;4.45;;;;;;;5.30;84.47;101575.84;5042672;28;20041;-73
2022/01/23 13:15:58;;;;;;;10.88;7.40;;;;;;;5.29;84.34;101579.28;5047363;28;20136;-73
2022/01/23 13:18:47;;;;;;;12.63;10.98;;;;;;;5.26;83.99;101576.50;5046200;28;20047;-73
2022/01/23 13:27:23;;;;;;;16.00;14.32;;;;;;;5.05;83.63;101578.97;5027716;28;20127;-74
2022/01/23 13:29:59;;;;;;;15.68;9.70;;;;;;;5.05;83.45;101589.44;5011366;28;20046;-74
2022/01/23 13:32:37;;;;;;;11.52;9.05;;;;;;;5.05;83.23;101582.47;5025102;28;20049;-74
2022/01/23 13:35:09;;;;;;;22.73;19.30;;;;;;;5.12;83.30;101578.44;5026230;28;20124;-73
2022/01/23 13:37:40;;;;;;;18.58;16.33;;;;;;;5.12;82.72;101579.31;5025281;28;20050;-73
2022/01/23 13:40:13;;;;;;;14.18;10.73;;;;;;;5.16;82.22;101580.38;5007655;28;20145;-74
2022/01/23 13:59:40;;;;;;;18.65;13.13;;;;;;;5.68;81.04;101596.94;5027169;28;20053;-73
2022/01/23 14:02:24;;;;;;;29.80;23.98;;;;;;;5.59;80.01;101597.38;5027043;28;20125;-73
2022/01/23 14:04:54;;;;;;;33.88;28.95;;;;;;;5.56;79.66;101594.63;5025118;28;20037;-74
2022/01/23 14:07:23;;;;;;;30.77;26.27;;;;;;;5.65;79.89;101606.34;5024845;28;20046;-74
2022/01/23 14:09:51;;;;;;;27.20;21.77;;;;;;;5.75;79.87;101600.75;5026386;28;20038;-73
2022/01/23 14:12:21;;;;;;;23.52;16.88;;;;;;;5.86;79.82;101604.78;5055361;28;20493;-73
2022/01/23 14:14:51;;;;;;;19.92;12.90;;;;;;;5.94;79.79;101590.38;5056327;28;20041;-73
2022/01/23 14:17:22;;;;;;;25.05;16.23;;;;;;;6.02;79.74;101591.63;5021746;28;20050;-74
2022/01/23 14:20:02;;;;;;;13.48;10.05;;;;;;;6.03;79.09;101582.94;5025500;28;20044;-74
2022/01/23 14:22:32;;;;;;;26.15;21.30;;;;;;;6.00;78.67;101586.31;5041728;28;20057;-73
2022/01/23 14:25:12;;;;;;;18.83;12.80;;;;;;;5.96;78.12;101594.88;5022899;28;20033;-74
2022/01/23 14:27:43;;;;;;;26.65;20.40;;;;;;;5.95;77.99;101595.69;5008531;28;20502;-74
2022/01/23 14:30:15;;;;;;;31.05;25.73;;;;;;;5.96;77.68;101594.88;5044302;28;20124;-74
2022/01/23 14:32:49;;;;;;;25.85;23.02;;;;;;;5.99;77.62;101594.09;5014777;28;20041;-74
2022/01/23 14:35:17;;;;;;;;;;;;;;;5.98;77.75;101587.94;5019085;28;20061;-75
2022/01/23 14:37:47;;;;;;;18.52;14.98;;;;;;;5.94;77.81;101582.50;5017584;28;20450;-74
2022/01/23 14:40:18;;;;;;;19.75;17.17;;;;;;;5.92;77.68;101581.53;5038198;28;20049;-74
2022/01/23 14:43:04;;;;;;;31.95;27.88;;;;;;;5.95;77.70;101581.69;5037677;28;20049;-73
2022/01/23 14:45:34;;;;;;;18.70;15.00;;;;;;;5.94;77.63;101574.66;5044304;28;20033;-75
2022/01/23 14:48:06;;;;;;;14.13;9.10;;;;;;;5.92;77.23;101577.19;5022675;28;20114;-75
2022/01/23 14:50:36;;;;;;;11.43;5.85;;;;;;;5.83;76.70;101586.31;5028771;28;20037;-75
2022/01/23 14:53:09;;;;;;;12.20;8.95;;;;;;;5.61;76.74;101592.22;5046066;28;20049;-75
2022/01/23 14:55:39;;;;;;;11.40;8.93;;;;;;;5.32;77.44;101622.19;5026777;28;20049;-76
2022/01/23 14:58:10;;;;;;;13.05;10.02;;;;;;;5.04;77.89;101614.69;5046349;28;20037;-75
2022/01/23 15:00:38;;;;;;;34.03;25.33;;;;;;;5.05;79.03;101611.25;5046458;28;20045;-75
2022/01/23 15:03:08;;;;;;;21.63;15.68;;;;;;;5.15;79.39;101607.38;5028467;28;20065;-74
2022/01/23 15:05:39;;;;;;;36.47;31.63;;;;;;;5.15;79.14;101608.28;5045902;28;20102;-75
2022/01/23 15:08:08;;;;;;;69.07;59.72;;;;;;;5.15;79.03;101612.59;5046777;28;20049;-75
2022/01/23 15:10:38;;;;;;;62.28;49.92;;;;;;;5.10;78.95;101629.81;5044616;28;20045;-75
2022/01/23 15:13:06;;;;;;;56.58;50.40;;;;;;;5.09;79.05;101630.63;5027476;28;20511;-74
2022/01/23 15:15:34;;;;;;;20.40;15.63;;;;;;;5.13;79.18;101625.59;5045245;28;20126;-74
2022/01/23 15:18:02;;;;;;;14.40;10.43;;;;;;;5.20;79.51;101627.72;5028957;28;20037;-74
2022/01/23 15:20:33;;;;;;;16.73;12.52;;;;;;;5.27;79.69;101639.41;5046519;28;20072;-76
2022/01/23 15:23:01;;;;;;;27.08;21.70;;;;;;;5.27;79.78;101652.47;5045386;28;20071;-74
2022/01/23 15:25:29;;;;;;;21.27;15.07;;;;;;;5.24;79.69;101659.28;5046578;28;20041;-75
2022/01/23 15:27:58;;;;;;;16.05;8.55;;;;;;;5.10;80.16;101662.09;5046962;28;20079;-75
2022/01/23 15:30:26;;;;;;;23.50;20.33;;;;;;;5.03;80.24;101675.69;5045892;28;20065;-74
2022/01/23 15:32:54;;;;;;;40.67;36.55;;;;;;;4.99;80.96;101686.78;5045121;28;20375;-74